Time;durP1;ratioP1;P1;durP2;ratioP2;P2;SDS_P1;SDS_P2;PMS_P1;PMS_P2;Temp;Humidity;BMP_temperature;BMP_pressure;BME280_temperature;BME280_humidity;BME280_pressure;Samples;Min_cycle;Max_cycle;Signal;HPM_P1;HPM_P2
2023/07/22 00:01:17;;;;;;;10.23;7.03;;;16.30;93.50;;;;;;5003430;28;20026;-81
2023/07/22 00:03:43;;;;;;;13.43;7.78;;;16.40;93.60;;;;;;5003287;28;20553;-82
2023/07/22 00:06:10;;;;;;;15.77;7.35;;;16.40;93.50;;;;;;4985648;28;20025;-81
2023/07/22 00:08:36;;;;;;;14.00;8.30;;;16.40;93.50;;;;;;5001448;28;20384;-81
2023/07/22 00:11:03;;;;;;;13.35;8.20;;;16.40;93.50;;;;;;4983033;28;20600;-82
2023/07/22 00:13:29;;;;;;;17.67;8.30;;;16.40;93.60;;;;;;4986104;28;20018;-81
2023/07/22 00:15:59;;;;;;;12.52;7.38;;;16.40;93.70;;;;;;5004235;28;20026;-81
2023/07/22 00:18:27;;;;;;;12.48;8.20;;;16.40;93.70;;;;;;4988878;28;20021;-82
2023/07/22 00:20:53;;;;;;;15.52;8.07;;;16.40;93.80;;;;;;5005743;28;20026;-81
2023/07/22 00:23:19;;;;;;;11.98;7.72;;;16.40;93.60;;;;;;4988898;28;20017;-82
2023/07/22 00:25:46;;;;;;;16.67;8.50;;;16.40;93.70;;;;;;5000788;28;20032;-81
2023/07/22 00:28:11;;;;;;;12.98;8.07;;;16.50;93.80;;;;;;5003853;28;20053;-81
2023/07/22 00:30:37;;;;;;;15.18;8.75;;;16.50;93.70;;;;;;4986085;28;20486;-82
2023/07/22 00:33:02;;;;;;;13.73;7.80;;;16.60;93.70;;;;;;5003728;28;20025;-81
2023/07/22 00:35:28;;;;;;;14.93;8.85;;;16.50;93.60;;;;;;4985369;28;20485;-81
2023/07/22 00:37:54;;;;;;;15.80;8.38;;;16.40;93.80;;;;;;4983939;28;20036;-81
2023/07/22 00:40:19;;;;;;;21.30;8.07;;;16.30;94.00;;;;;;4985934;28;20026;-81
2023/07/22 00:42:45;;;;;;;11.55;7.35;;;16.50;94.30;;;;;;4985048;28;20068;-82
2023/07/22 00:45:11;;;;;;;16.48;7.43;;;16.50;94.10;;;;;;5003854;28;20458;-82
2023/07/22 00:47:37;;;;;;;11.52;7.38;;;16.70;94.20;;;;;;5003542;28;20045;-83
2023/07/22 00:50:06;;;;;;;14.55;8.13;;;16.70;93.90;;;;;;4983195;28;20103;-82
2023/07/22 00:52:34;;;;;;;16.10;8.25;;;16.70;93.90;;;;;;4985190;28;20026;-82
2023/07/22 00:55:02;;;;;;;13.35;7.72;;;16.70;93.90;;;;;;5000820;28;20762;-81
2023/07/22 00:57:28;;;;;;;14.90;8.55;;;16.70;93.90;;;;;;4984172;28;20042;-81
2023/07/22 00:59:54;;;;;;;18.02;8.77;;;16.60;94.10;;;;;;4984993;28;20527;-81
2023/07/22 01:02:20;;;;;;;17.30;8.60;;;16.70;94.10;;;;;;5001432;28;20026;-81
2023/07/22 01:04:46;;;;;;;13.27;8.20;;;16.70;94.00;;;;;;5001790;28;20036;-82
2023/07/22 01:07:13;;;;;;;16.52;8.80;;;16.70;93.90;;;;;;4987340;28;20568;-82
2023/07/22 01:09:40;;;;;;;12.55;8.25;;;16.80;93.90;;;;;;4999986;28;20053;-81
2023/07/22 01:12:07;;;;;;;16.15;8.65;;;16.80;94.00;;;;;;5003043;28;20025;-81
2023/07/22 01:14:42;;;;;;;14.02;8.52;;;16.80;93.90;;;;;;4999671;28;20021;-81
2023/07/22 01:17:10;;;;;;;15.15;8.73;;;16.80;93.80;;;;;;4991044;28;20497;-81
2023/07/22 01:19:38;;;;;;;13.82;8.98;;;16.60;93.60;;;;;;5003197;28;20419;-82
2023/07/22 01:22:07;;;;;;;18.77;9.25;;;16.60;93.80;;;;;;4985674;28;20018;-82
2023/07/22 01:24:33;;;;;;;17.80;9.60;;;16.70;93.80;;;;;;4985190;28;20038;-81
2023/07/22 01:26:58;;;;;;;12.90;9.00;;;16.70;93.80;;;;;;5002292;28;20072;-82
2023/07/22 01:29:25;;;;;;;20.75;9.60;;;16.50;93.60;;;;;;5002997;28;20532;-81
2023/07/22 01:31:53;;;;;;;20.30;9.88;;;16.30;94.00;;;;;;5001383;28;20022;-81
2023/07/22 01:34:22;;;;;;;15.93;9.55;;;16.20;94.20;;;;;;5003905;28;20285;-81
2023/07/22 01:36:48;;;;;;;17.95;9.13;;;16.30;94.40;;;;;;5001807;28;20466;-80
2023/07/22 01:39:14;;;;;;;18.77;9.88;;;16.30;94.40;;;;;;4982757;28;20383;-81
2023/07/22 01:41:40;;;;;;;22.75;10.88;;;16.20;94.30;;;;;;5002238;28;20117;-81
2023/07/22 01:44:08;;;;;;;18.30;9.70;;;16.20;94.30;;;;;;4986478;28;20140;-81
2023/07/22 01:46:34;;;;;;;16.85;9.60;;;16.30;94.50;;;;;;5001657;28;20022;-81
2023/07/22 01:49:01;;;;;;;17.35;10.10;;;16.30;94.30;;;;;;4983975;28;20124;-80
2023/07/22 01:51:27;;;;;;;17.92;9.93;;;16.40;94.00;;;;;;5002953;28;20026;-79
2023/07/22 01:53:53;;;;;;;16.90;9.20;;;16.40;94.10;;;;;;5001691;28;20036;-80
2023/07/22 01:56:20;;;;;;;18.15;9.70;;;16.20;93.90;;;;;;5000724;28;20297;-80
2023/07/22 01:58:46;;;;;;;17.40;10.48;;;16.30;94.00;;;;;;4983863;28;20553;-80
2023/07/22 02:01:15;;;;;;;17.75;9.35;;;16.20;93.90;;;;;;5002217;28;20010;-80
2023/07/22 02:03:41;;;;;;;20.05;9.75;;;16.20;94.20;;;;;;4985991;28;20037;-80
2023/07/22 02:06:09;;;;;;;22.70;10.10;;;16.20;93.90;;;;;;4999907;28;20105;-81
2023/07/22 02:08:36;;;;;;;19.98;9.88;;;16.20;93.70;;;;;;5001215;28;20029;-80
2023/07/22 02:11:06;;;;;;;17.42;9.57;;;16.30;94.00;;;;;;5002695;28;20405;-80
2023/07/22 02:13:33;;;;;;;19.42;9.68;;;16.30;93.70;;;;;;4982557;28;20037;-83
2023/07/22 02:16:02;;;;;;;15.73;10.23;;;16.30;93.50;;;;;;4984277;28;20026;-80
2023/07/22 02:18:28;;;;;;;18.90;10.35;;;16.30;93.60;;;;;;4984657;28;20037;-80
2023/07/22 02:20:54;;;;;;;15.63;10.00;;;16.30;93.80;;;;;;5000885;28;20398;-80
2023/07/22 02:23:21;;;;;;;16.77;9.50;;;16.30;93.80;;;;;;5005194;28;20037;-80
2023/07/22 02:25:53;;;;;;;16.45;9.27;;;16.40;93.80;;;;;;5007558;28;20100;-82
2023/07/22 02:28:21;;;;;;;18.90;9.70;;;16.40;93.60;;;;;;5006414;28;20022;-81
2023/07/22 02:30:47;;;;;;;20.80;11.15;;;16.40;93.70;;;;;;4987218;28;20393;-81
2023/07/22 02:33:13;;;;;;;18.52;9.35;;;16.30;93.70;;;;;;4990742;28;20098;-80
2023/07/22 02:35:40;;;;;;;15.02;9.57;;;16.30;94.00;;;;;;4990187;28;20069;-81
2023/07/22 02:38:07;;;;;;;20.10;9.60;;;16.40;93.90;;;;;;5004032;28;20643;-80
2023/07/22 02:40:35;;;;;;;23.10;10.32;;;16.40;93.80;;;;;;5005801;28;20400;-81
2023/07/22 02:43:00;;;;;;;17.27;9.25;;;16.20;93.90;;;;;;4990127;28;20026;-81
2023/07/22 02:45:26;;;;;;;17.83;9.73;;;16.20;94.10;;;;;;4986028;28;20029;-82
2023/07/22 02:47:52;;;;;;;20.25;9.75;;;16.20;94.10;;;;;;5005519;28;20064;-82
2023/07/22 02:50:18;;;;;;;18.80;9.70;;;16.10;94.10;;;;;;4984005;28;20824;-80
2023/07/22 02:52:44;;;;;;;21.13;10.73;;;16.10;94.20;;;;;;4984308;28;20028;-81
2023/07/22 02:55:13;;;;;;;17.30;9.70;;;16.20;94.10;;;;;;5005328;28;20022;-81
2023/07/22 02:57:40;;;;;;;19.17;9.40;;;16.20;94.20;;;;;;5003024;28;20485;-82
2023/07/22 03:00:07;;;;;;;17.20;9.98;;;16.30;94.10;;;;;;4988086;28;20125;-81
2023/07/22 03:02:37;;;;;;;17.08;10.07;;;16.30;94.00;;;;;;5002684;28;20528;-81
2023/07/22 03:05:08;;;;;;;17.73;9.93;;;16.20;94.10;;;;;;4987404;28;20042;-81
2023/07/22 03:07:42;;;;;;;19.95;10.85;;;16.30;94.10;;;;;;5005315;28;20026;-81
2023/07/22 03:10:08;;;;;;;19.15;10.30;;;16.30;94.10;;;;;;5002093;28;20053;-81
2023/07/22 03:12:35;;;;;;;16.55;9.55;;;16.30;94.00;;;;;;5004076;28;20022;-81
2023/07/22 03:15:01;;;;;;;17.92;9.93;;;16.30;94.10;;;;;;5005524;28;20028;-82
2023/07/22 03:17:27;;;;;;;18.77;9.90;;;16.30;94.00;;;;;;5003486;28;20705;-80
2023/07/22 03:19:53;;;;;;;19.27;10.23;;;16.20;94.10;;;;;;5002773;28;20657;-82
2023/07/22 03:22:18;;;;;;;17.23;10.40;;;16.20;94.30;;;;;;5004774;28;20028;-82
2023/07/22 03:24:45;;;;;;;23.08;11.30;;;16.10;94.30;;;;;;4988860;28;20030;-81
2023/07/22 03:27:12;;;;;;;19.52;10.07;;;16.10;94.30;;;;;;5004019;28;20041;-82
2023/07/22 03:29:38;;;;;;;19.13;10.02;;;16.20;94.10;;;;;;4986765;28;20112;-81
2023/07/22 03:32:04;;;;;;;17.05;10.10;;;16.30;94.20;;;;;;5004919;28;20034;-81
2023/07/22 03:34:31;;;;;;;19.75;10.73;;;16.30;94.10;;;;;;5006118;28;20053;-81
2023/07/22 03:36:57;;;;;;;18.90;10.75;;;16.10;94.20;;;;;;4985925;28;20026;-81
2023/07/22 03:39:23;;;;;;;16.30;10.15;;;16.00;94.50;;;;;;5002528;28;20029;-82
2023/07/22 03:41:51;;;;;;;18.33;10.23;;;15.90;94.70;;;;;;5001687;28;20552;-82
2023/07/22 03:44:16;;;;;;;18.45;10.05;;;16.00;94.60;;;;;;5005202;28;20018;-80
2023/07/22 03:46:42;;;;;;;18.80;10.05;;;16.10;94.30;;;;;;4984920;28;20489;-83
2023/07/22 03:49:10;;;;;;;18.13;10.00;;;16.00;94.30;;;;;;5003431;28;20379;-81
2023/07/22 03:51:35;;;;;;;20.30;10.43;;;16.00;94.50;;;;;;4985248;28;20117;-82
2023/07/22 03:54:01;;;;;;;19.55;10.70;;;16.00;94.60;;;;;;5002458;28;20089;-81
2023/07/22 03:56:27;;;;;;;25.00;10.82;;;16.00;94.70;;;;;;4985962;28;20061;-81
2023/07/22 03:58:53;;;;;;;18.00;10.55;;;16.00;94.70;;;;;;5001970;28;20056;-83
2023/07/22 04:01:19;;;;;;;20.30;10.15;;;16.10;94.70;;;;;;4985694;28;20501;-82
2023/07/22 04:03:45;;;;;;;21.05;10.40;;;16.00;94.70;;;;;;4985469;28;20536;-81
2023/07/22 04:06:10;;;;;;;17.95;10.48;;;15.90;94.50;;;;;;5000766;28;20080;-82
2023/07/22 04:08:36;;;;;;;17.05;10.48;;;16.00;94.50;;;;;;4989535;28;20421;-81
2023/07/22 04:11:02;;;;;;;21.40;10.45;;;16.00;94.50;;;;;;5002998;28;20061;-82
2023/07/22 04:13:27;;;;;;;19.40;10.45;;;15.90;94.50;;;;;;5018266;28;20036;-83
2023/07/22 04:15:53;;;;;;;17.77;10.80;;;15.90;94.70;;;;;;5027293;28;20038;-82
2023/07/22 04:18:20;;;;;;;18.40;10.27;;;15.90;94.60;;;;;;5011503;28;20164;-81
2023/07/22 04:20:48;;;;;;;19.30;10.02;;;15.80;94.60;;;;;;5002442;28;20030;-81
2023/07/22 04:23:14;;;;;;;19.02;10.32;;;15.80;94.70;;;;;;4987272;28;20037;-81
2023/07/22 04:25:44;;;;;;;18.80;9.88;;;15.80;94.80;;;;;;4982777;28;20118;-81
2023/07/22 04:28:09;;;;;;;17.85;10.18;;;15.80;94.80;;;;;;5003589;28;20576;-81
2023/07/22 04:30:36;;;;;;;19.17;10.02;;;15.80;94.90;;;;;;4986941;28;20068;-83
2023/07/22 04:33:03;;;;;;;19.58;10.00;;;15.80;95.00;;;;;;5000701;28;20022;-81
2023/07/22 04:35:38;;;;;;;17.63;10.77;;;15.90;94.90;;;;;;4988787;28;20038;-81
2023/07/22 04:38:04;;;;;;;19.58;9.77;;;15.90;94.70;;;;;;5001633;28;20373;-82
2023/07/22 04:40:30;;;;;;;16.88;10.27;;;15.80;94.90;;;;;;5003450;28;20022;-82
2023/07/22 04:42:56;;;;;;;18.23;9.98;;;15.70;95.00;;;;;;5000225;28;20105;-81
2023/07/22 04:45:24;;;;;;;25.00;10.48;;;15.80;95.10;;;;;;5001802;28;20160;-82
2023/07/22 04:47:50;;;;;;;19.40;10.57;;;15.70;95.20;;;;;;5001490;28;20263;-82
2023/07/22 04:50:17;;;;;;;17.85;9.93;;;15.70;95.40;;;;;;5000513;28;20034;-83
2023/07/22 04:52:47;;;;;;;20.85;10.32;;;15.70;95.30;;;;;;5001900;28;20049;-81
2023/07/22 04:55:13;;;;;;;15.57;9.68;;;15.70;95.80;;;;;;4982384;28;20029;-82
2023/07/22 04:57:44;;;;;;;16.77;10.00;;;15.90;95.00;;;;;;5000404;28;20615;-82
2023/07/22 05:00:16;;;;;;;19.80;10.43;;;16.00;94.90;;;;;;5001905;28;20034;-81
2023/07/22 05:02:44;;;;;;;20.90;9.60;;;16.00;94.80;;;;;;4999784;28;20033;-81
2023/07/22 05:05:09;;;;;;;15.88;9.70;;;15.90;94.90;;;;;;5001485;28;20030;-81
2023/07/22 05:07:37;;;;;;;18.38;9.27;;;16.00;95.00;;;;;;4985514;28;20026;-82
2023/07/22 05:10:03;;;;;;;19.30;10.07;;;15.90;95.20;;;;;;4998286;28;20042;-81
2023/07/22 05:12:29;;;;;;;17.40;9.18;;;16.00;95.10;;;;;;5002440;28;20121;-82
2023/07/22 05:14:54;;;;;;;20.52;10.95;;;16.10;94.90;;;;;;5001181;28;20720;-81
2023/07/22 05:17:20;;;;;;;20.42;10.82;;;16.10;94.90;;;;;;4982554;28;20054;-81
2023/07/22 05:19:46;;;;;;;18.02;10.23;;;16.10;94.70;;;;;;4999258;28;20401;-82
2023/07/22 05:22:11;;;;;;;17.90;10.65;;;16.10;94.50;;;;;;5002592;28;20025;-81
2023/07/22 05:24:37;;;;;;;19.25;9.75;;;16.30;94.50;;;;;;4984207;28;20049;-81
2023/07/22 05:27:03;;;;;;;25.65;10.27;;;16.30;94.60;;;;;;5000423;28;20060;-81
2023/07/22 05:29:28;;;;;;;21.88;10.43;;;16.50;94.40;;;;;;4983640;28;20026;-82
2023/07/22 05:31:54;;;;;;;21.52;10.60;;;16.40;94.30;;;;;;5000619;28;20040;-82
2023/07/22 05:34:19;;;;;;;17.23;9.88;;;16.50;94.30;;;;;;5001717;28;21012;-81
2023/07/22 05:36:45;;;;;;;17.13;9.50;;;16.50;94.30;;;;;;5000978;28;20026;-82
2023/07/22 05:39:10;;;;;;;19.75;10.57;;;16.60;93.90;;;;;;4990513;28;20048;-82
2023/07/22 05:41:36;;;;;;;18.95;10.68;;;16.60;94.00;;;;;;5000936;28;20482;-82
2023/07/22 05:44:02;;;;;;;25.67;9.88;;;16.50;94.40;;;;;;5000280;28;20474;-82
2023/07/22 05:46:27;;;;;;;24.67;10.55;;;16.60;94.40;;;;;;5001795;28;20113;-82
2023/07/22 05:48:53;;;;;;;29.13;10.20;;;16.80;93.70;;;;;;5000655;28;20030;-81
2023/07/22 05:51:19;;;;;;;19.10;10.27;;;16.70;93.60;;;;;;5000554;28;20037;-81
2023/07/22 05:53:44;;;;;;;23.17;10.68;;;16.70;93.70;;;;;;4984681;28;20052;-82
2023/07/22 05:56:10;;;;;;;16.85;10.40;;;16.80;93.60;;;;;;4980670;28;20022;-82
2023/07/22 05:58:36;;;;;;;20.38;11.27;;;16.80;93.80;;;;;;4986497;28;20536;-81
2023/07/22 06:01:02;;;;;;;19.20;10.52;;;16.80;93.40;;;;;;5002803;28;20470;-81
2023/07/22 06:03:30;;;;;;;17.58;10.45;;;17.00;93.40;;;;;;4991968;28;20018;-81
2023/07/22 06:05:55;;;;;;;22.58;10.75;;;17.00;93.20;;;;;;4988806;28;20424;-82
2023/07/22 06:08:21;;;;;;;19.35;10.50;;;17.00;93.30;;;;;;4986908;28;20426;-82
2023/07/22 06:10:47;;;;;;;21.33;10.43;;;17.00;93.30;;;;;;4995468;28;20593;-81
2023/07/22 06:13:12;;;;;;;24.23;10.88;;;16.90;93.30;;;;;;4990393;28;20025;-81
2023/07/22 06:15:38;;;;;;;19.80;10.57;;;17.10;93.30;;;;;;5005240;28;20474;-81
2023/07/22 06:18:07;;;;;;;28.45;12.18;;;17.10;93.10;;;;;;5006111;28;20057;-82
2023/07/22 06:20:33;;;;;;;21.05;11.13;;;17.20;93.10;;;;;;5004150;28;20113;-81
2023/07/22 06:22:59;;;;;;;23.08;11.05;;;17.10;93.10;;;;;;5004967;28;20069;-81
2023/07/22 06:25:25;;;;;;;31.65;11.65;;;17.20;93.30;;;;;;5004433;28;20474;-82
2023/07/22 06:27:50;;;;;;;20.27;10.95;;;17.30;92.90;;;;;;5005310;28;20083;-80
2023/07/22 06:30:16;;;;;;;21.38;11.15;;;17.40;93.00;;;;;;5005503;28;20635;-81
2023/07/22 06:32:41;;;;;;;21.35;11.93;;;17.40;92.80;;;;;;5004627;28;20030;-81
2023/07/22 06:35:07;;;;;;;26.67;11.52;;;17.40;93.00;;;;;;5003249;28;20026;-82
2023/07/22 06:37:33;;;;;;;20.55;11.15;;;17.50;92.70;;;;;;4986743;28;20239;-82
2023/07/22 06:39:59;;;;;;;21.08;11.00;;;17.60;92.70;;;;;;4985911;28;20025;-81
2023/07/22 06:42:26;;;;;;;22.40;10.98;;;17.50;93.00;;;;;;5005774;28;20026;-82
2023/07/22 06:44:51;;;;;;;19.10;10.52;;;17.70;92.70;;;;;;5004542;28;20046;-81
2023/07/22 06:47:17;;;;;;;21.10;11.15;;;17.80;92.80;;;;;;4989104;28;20022;-81
2023/07/22 06:49:42;;;;;;;22.55;10.95;;;18.00;92.70;;;;;;4985732;28;20045;-82
2023/07/22 06:52:08;;;;;;;23.50;11.43;;;18.00;92.50;;;;;;5005290;28;20025;-82
2023/07/22 06:54:35;;;;;;;20.98;11.52;;;18.20;92.30;;;;;;5004065;28;20104;-81
2023/07/22 06:57:01;;;;;;;22.95;11.73;;;18.30;92.10;;;;;;5005176;28;20109;-82
2023/07/22 06:59:26;;;;;;;21.85;11.32;;;18.30;92.00;;;;;;5004946;28;20104;-81
2023/07/22 07:01:52;;;;;;;21.15;11.15;;;18.30;92.40;;;;;;4986908;28;20041;-81
2023/07/22 07:04:18;;;;;;;32.20;11.88;;;18.30;92.40;;;;;;5004847;28;20029;-82
2023/07/22 07:06:45;;;;;;;18.15;10.80;;;18.40;92.20;;;;;;4990537;28;20053;-80
2023/07/22 07:09:11;;;;;;;20.73;10.55;;;18.50;92.10;;;;;;5005528;28;20037;-81
2023/07/22 07:11:37;;;;;;;26.45;11.02;;;18.60;91.80;;;;;;5004956;28;20033;-81
2023/07/22 07:14:03;;;;;;;20.95;11.02;;;18.60;91.80;;;;;;4987876;28;20544;-80
2023/07/22 07:16:31;;;;;;;19.45;10.50;;;18.70;92.00;;;;;;4988205;28;20030;-81
2023/07/22 07:18:57;;;;;;;26.52;12.05;;;18.80;91.50;;;;;;5007155;28;20026;-82
2023/07/22 07:21:24;;;;;;;17.40;10.43;;;18.80;91.50;;;;;;4989179;28;20065;-82
2023/07/22 07:23:51;;;;;;;17.00;10.63;;;19.00;91.30;;;;;;5006361;28;20519;-81
2023/07/22 07:26:17;;;;;;;21.13;11.23;;;19.00;91.70;;;;;;5005835;28;20778;-81
2023/07/22 07:28:43;;;;;;;19.85;10.10;;;19.20;91.20;;;;;;4989586;28;20033;-81
2023/07/22 07:31:08;;;;;;;23.58;11.15;;;19.10;91.30;;;;;;5004610;28;20038;-80
2023/07/22 07:33:34;;;;;;;26.95;10.77;;;19.30;90.90;;;;;;4992506;28;20022;-81
2023/07/22 07:36:00;;;;;;;27.15;11.32;;;19.40;91.00;;;;;;4997937;28;20034;-80
2023/07/22 07:38:26;;;;;;;24.33;12.05;;;19.40;90.70;;;;;;5005600;28;20542;-81
2023/07/22 07:40:54;;;;;;;23.90;12.23;;;19.50;90.80;;;;;;4987294;28;20030;-81
2023/07/22 07:43:19;;;;;;;19.63;10.65;;;19.60;90.70;;;;;;4987632;28;20030;-81
2023/07/22 07:45:45;;;;;;;22.70;11.07;;;19.70;90.80;;;;;;5006122;28;20030;-81
2023/07/22 07:48:13;;;;;;;20.55;11.85;;;19.70;91.10;;;;;;4986548;28;20025;-80
2023/07/22 07:50:39;;;;;;;19.58;9.35;;;19.50;90.30;;;;;;4986569;28;20033;-81
2023/07/22 07:53:04;;;;;;;18.48;10.05;;;19.60;90.60;;;;;;5006147;28;20091;-81
2023/07/22 07:55:30;;;;;;;20.02;9.80;;;19.40;90.10;;;;;;4989866;28;20028;-81
2023/07/22 07:57:58;;;;;;;20.17;9.80;;;19.60;90.10;;;;;;5004697;28;20461;-80
2023/07/22 08:00:24;;;;;;;18.45;9.82;;;19.60;90.20;;;;;;5003637;28;21299;-81
2023/07/22 08:02:51;;;;;;;20.48;9.77;;;19.80;90.10;;;;;;4986627;28;20084;-80
2023/07/22 08:05:17;;;;;;;19.92;9.35;;;19.70;89.60;;;;;;5005767;28;20014;-81
2023/07/22 08:07:45;;;;;;;19.65;9.85;;;19.70;90.00;;;;;;5005211;28;20034;-80
2023/07/22 08:10:11;;;;;;;20.08;10.10;;;19.80;89.90;;;;;;5002851;28;20029;-81
2023/07/22 08:12:37;;;;;;;17.98;9.48;;;19.90;90.10;;;;;;4987533;28;20483;-81
2023/07/22 08:15:03;;;;;;;15.15;9.07;;;20.00;87.90;;;;;;5004819;28;20578;-81
2023/07/22 08:17:29;;;;;;;17.40;10.02;;;20.00;87.30;;;;;;4987768;28;20570;-83
2023/07/22 08:19:57;;;;;;;16.35;8.50;;;20.10;87.40;;;;;;4988980;28;20022;-80
2023/07/22 08:22:23;;;;;;;22.58;9.15;;;20.30;87.40;;;;;;5005118;28;20026;-80
2023/07/22 08:24:48;;;;;;;14.18;8.55;;;20.20;87.60;;;;;;4986929;28;20028;-80
2023/07/22 08:27:14;;;;;;;15.90;7.15;;;20.30;87.90;;;;;;5005159;28;20121;-82
2023/07/22 08:29:39;;;;;;;13.05;7.13;;;20.40;86.40;;;;;;5004550;28;20053;-81
2023/07/22 08:32:05;;;;;;;13.68;6.72;;;20.50;86.20;;;;;;5005240;28;20018;-80
2023/07/22 08:34:31;;;;;;;14.10;7.72;;;20.30;85.10;;;;;;4993854;28;20018;-80
2023/07/22 08:36:56;;;;;;;14.85;6.80;;;20.20;85.10;;;;;;4986415;28;20556;-80
2023/07/22 08:39:22;;;;;;;12.93;7.35;;;20.20;86.20;;;;;;4987791;28;20033;-80
2023/07/22 08:41:52;;;;;;;13.57;6.97;;;20.20;85.50;;;;;;4998644;28;20037;-82
2023/07/22 08:44:21;;;;;;;13.00;6.75;;;20.30;85.10;;;;;;5003499;28;20032;-79
2023/07/22 08:46:54;;;;;;;16.38;6.68;;;20.30;85.20;;;;;;5005114;28;20026;-80
2023/07/22 08:49:19;;;;;;;;;;;20.50;84.20;;;;;;5003864;28;20033;-80
2023/07/22 08:51:46;;;;;;;13.82;7.45;;;20.40;85.00;;;;;;4983520;28;19909;-79
2023/07/22 08:54:13;;;;;;;13.75;7.38;;;20.50;85.30;;;;;;4984944;28;20036;-80
2023/07/22 08:56:40;;;;;;;12.60;7.50;;;20.50;85.50;;;;;;4982404;28;20054;-80
2023/07/22 08:59:06;;;;;;;13.70;7.57;;;20.60;84.00;;;;;;4974140;28;20906;-80
2023/07/22 09:01:33;;;;;;;14.27;7.75;;;20.40;84.20;;;;;;4979321;28;20438;-81
2023/07/22 09:03:59;;;;;;;14.05;6.38;;;20.40;85.20;;;;;;4995563;28;20109;-81
2023/07/22 09:06:25;;;;;;;15.43;7.20;;;20.60;84.40;;;;;;4982742;28;20105;-80
2023/07/22 09:08:52;;;;;;;12.35;6.63;;;20.80;82.80;;;;;;4984256;28;20121;-80
2023/07/22 09:11:19;;;;;;;12.30;6.63;;;20.70;83.90;;;;;;5002222;28;20454;-80
2023/07/22 09:13:46;;;;;;;10.15;6.78;;;20.60;82.50;;;;;;4985347;28;20048;-80
2023/07/22 09:16:12;;;;;;;10.25;6.53;;;20.70;83.60;;;;;;5000493;28;20115;-81
2023/07/22 09:18:40;;;;;;;12.32;6.38;;;20.90;82.10;;;;;;4999859;28;20026;-79
2023/07/22 09:21:06;;;;;;;15.13;6.40;;;21.00;81.00;;;;;;5002650;28;20110;-80
2023/07/22 09:23:35;;;;;;;12.43;6.60;;;21.10;82.30;;;;;;5001579;28;20113;-80
2023/07/22 09:26:14;;;;;;;7.47;6.35;;;21.20;81.10;;;;;;4982624;28;20022;-80
2023/07/22 09:28:56;;;;;;;9.50;6.57;;;21.20;81.40;;;;;;5001921;28;20482;-80
2023/07/22 09:31:28;;;;;;;11.30;6.10;;;21.20;81.80;;;;;;4999455;28;20076;-79
2023/07/22 09:33:54;;;;;;;9.48;6.43;;;21.10;82.00;;;;;;4983796;28;20049;-79
2023/07/22 09:36:22;;;;;;;14.20;6.22;;;21.10;81.60;;;;;;4992406;28;21227;-80
2023/07/22 09:39:04;;;;;;;12.20;5.78;;;20.90;81.70;;;;;;4999607;28;20498;-79
2023/07/22 09:41:30;;;;;;;10.20;5.72;;;20.50;82.00;;;;;;4993673;28;20072;-79
2023/07/22 09:43:56;;;;;;;10.30;5.93;;;20.50;82.90;;;;;;4999631;28;20033;-80
2023/07/22 09:46:35;;;;;;;9.25;5.38;;;20.70;82.60;;;;;;4994845;28;20555;-80
2023/07/22 09:49:07;;;;;;;10.68;5.70;;;20.70;83.30;;;;;;4999701;28;20113;-81
2023/07/22 09:51:34;;;;;;;11.43;5.55;;;20.90;82.40;;;;;;4979252;28;20034;-79
2023/07/22 09:54:02;;;;;;;10.23;5.63;;;21.10;82.50;;;;;;4997465;28;20163;-80
2023/07/22 09:56:28;;;;;;;10.15;5.60;;;21.30;80.60;;;;;;4987136;28;20049;-80
2023/07/22 09:58:54;;;;;;;8.05;5.43;;;21.60;81.10;;;;;;4976526;28;20471;-80
2023/07/22 10:01:23;;;;;;;12.35;6.32;;;21.80;78.70;;;;;;4993302;28;20034;-81
2023/07/22 10:03:55;;;;;;;11.95;6.45;;;21.70;80.20;;;;;;4999061;28;20018;-80
2023/07/22 10:06:26;;;;;;;14.07;6.30;;;21.90;79.60;;;;;;4977426;28;20168;-79
2023/07/22 10:08:52;;;;;;;10.63;6.03;;;22.10;78.60;;;;;;4995889;28;20038;-79
2023/07/22 10:11:18;;;;;;;10.35;6.00;;;22.40;77.80;;;;;;4991318;28;20413;-80
2023/07/22 10:13:45;;;;;;;8.43;6.10;;;22.30;77.70;;;;;;4996194;28;20042;-80
2023/07/22 10:16:12;;;;;;;13.48;6.07;;;22.50;79.00;;;;;;4980427;28;20032;-82
2023/07/22 10:18:39;;;;;;;9.50;6.10;;;22.70;77.40;;;;;;4980506;28;20113;-80
2023/07/22 10:21:05;;;;;;;11.00;6.38;;;22.90;76.90;;;;;;4997029;28;21003;-80
2023/07/22 10:23:32;;;;;;;11.30;5.82;;;22.90;76.00;;;;;;4998333;28;20088;-80
2023/07/22 10:25:58;;;;;;;8.48;5.55;;;22.90;76.10;;;;;;4991223;28;20029;-79
2023/07/22 10:28:26;;;;;;;10.05;5.70;;;22.80;76.70;;;;;;4996848;28;20030;-79
2023/07/22 10:30:52;;;;;;;13.07;6.50;;;22.70;76.60;;;;;;4993899;28;20052;-80
2023/07/22 10:33:18;;;;;;;7.80;5.43;;;22.40;77.60;;;;;;4978599;28;20261;-80
2023/07/22 10:36:08;;;;;;;9.13;5.55;;;22.40;79.10;;;;;;4979241;28;20513;-80
2023/07/22 10:38:35;;;;;;;8.73;5.25;;;22.50;78.10;;;;;;4996853;28;20034;-80
2023/07/22 10:41:11;;;;;;;14.15;5.95;;;22.50;77.30;;;;;;4997680;28;20021;-78
2023/07/22 10:43:36;;;;;;;9.60;5.35;;;22.20;76.10;;;;;;4994529;28;20121;-78
2023/07/22 10:46:13;;;;;;;10.35;5.30;;;22.20;77.20;;;;;;4981292;28;20136;-79
2023/07/22 10:48:42;;;;;;;9.60;5.38;;;22.30;77.30;;;;;;4999800;28;20045;-78
2023/07/22 10:51:14;;;;;;;10.77;5.30;;;22.30;77.10;;;;;;4984023;28;20363;-78
2023/07/22 10:53:50;;;;;;;6.18;4.63;;;22.30;77.30;;;;;;5000509;28;20038;-78
2023/07/22 10:56:19;;;;;;;10.30;4.43;;;22.40;77.30;;;;;;5001764;28;20112;-78
2023/07/22 10:58:45;;;;;;;9.63;4.53;;;22.70;77.10;;;;;;4984846;28;20095;-78
2023/07/22 11:01:28;;;;;;;6.05;3.88;;;22.60;75.30;;;;;;5003095;28;20018;-80
2023/07/22 11:04:30;;;;;;;6.25;4.55;;;22.50;74.90;;;;;;5003232;28;20053;-80
2023/07/22 11:06:58;;;;;;;10.93;4.47;;;22.60;75.50;;;;;;4982047;28;20475;-80
2023/07/22 11:09:30;;;;;;;5.88;4.43;;;22.70;74.60;;;;;;4984199;28;20054;-79
2023/07/22 11:12:02;;;;;;;4.60;3.97;;;22.80;74.50;;;;;;4962341;28;20031;-80
2023/07/22 11:14:37;;;;;;;8.57;4.53;;;23.00;74.40;;;;;;4981209;28;20026;-80
2023/07/22 11:17:04;;;;;;;8.30;4.10;;;23.10;72.90;;;;;;4978793;28;20125;-80
2023/07/22 11:19:31;;;;;;;6.90;4.10;;;23.10;73.50;;;;;;4964928;28;20492;-80
2023/07/22 11:21:57;;;;;;;4.50;3.92;;;23.40;72.90;;;;;;4959960;28;20061;-80
2023/07/22 11:24:24;;;;;;;5.35;3.72;;;23.70;71.40;;;;;;4982130;28;20046;-81
2023/07/22 11:26:51;;;;;;;7.97;3.97;;;23.60;71.10;;;;;;4979928;28;20133;-82
2023/07/22 11:29:17;;;;;;;4.95;3.47;;;23.60;71.60;;;;;;4979381;28;20751;-80
2023/07/22 11:31:47;;;;;;;5.82;4.07;;;23.70;70.10;;;;;;4964962;28;20490;-81
2023/07/22 11:34:17;;;;;;;6.55;3.20;;;23.60;69.70;;;;;;4981310;28;20345;-80
2023/07/22 11:36:43;;;;;;;7.82;4.00;;;23.50;70.50;;;;;;4983306;28;20034;-81
2023/07/22 11:39:15;;;;;;;7.32;3.80;;;23.50;70.30;;;;;;4981200;28;20029;-80
2023/07/22 11:41:41;;;;;;;5.90;3.85;;;23.30;70.50;;;;;;4980943;28;20057;-81
2023/07/22 11:44:09;;;;;;;7.97;3.92;;;23.20;73.20;;;;;;4982742;28;20113;-80
2023/07/22 11:46:47;;;;;;;6.57;3.45;;;23.40;71.20;;;;;;4983128;28;20030;-81
2023/07/22 11:49:21;;;;;;;6.80;3.53;;;23.40;71.50;;;;;;4986545;28;20042;-82
2023/07/22 11:51:47;;;;;;;5.80;3.10;;;23.30;71.70;;;;;;4982891;28;20045;-80
2023/07/22 11:54:15;;;;;;;6.43;3.47;;;23.30;72.70;;;;;;4980612;28;20023;-81
2023/07/22 11:56:40;;;;;;;7.40;3.75;;;23.40;71.40;;;;;;4981308;28;20100;-80
2023/07/22 11:59:08;;;;;;;8.00;3.50;;;23.30;72.00;;;;;;4964848;28;20470;-81
2023/07/22 12:01:36;;;;;;;8.02;3.28;;;23.20;71.30;;;;;;4981366;28;20046;-80
2023/07/22 12:04:13;;;;;;;5.05;3.28;;;22.90;71.70;;;;;;4982190;28;20015;-80
2023/07/22 12:06:39;;;;;;;4.35;2.95;;;22.70;72.10;;;;;;4980720;28;20030;-80
2023/07/22 12:09:06;;;;;;;5.28;2.83;;;22.80;73.10;;;;;;4983082;28;20117;-80
2023/07/22 12:11:33;;;;;;;5.95;3.35;;;22.90;71.40;;;;;;4980541;28;20093;-80
2023/07/22 12:14:07;;;;;;;3.40;2.55;;;22.90;71.70;;;;;;4980976;28;20068;-80
2023/07/22 12:16:41;;;;;;;7.18;3.08;;;22.80;70.70;;;;;;4981716;28;20093;-80
2023/07/22 12:19:10;;;;;;;9.38;3.25;;;22.60;70.40;;;;;;4980253;28;20022;-80
2023/07/22 12:21:36;;;;;;;3.67;2.92;;;22.70;71.80;;;;;;4982879;28;20049;-80
2023/07/22 12:24:04;;;;;;;6.63;2.78;;;22.90;73.20;;;;;;4980221;28;20482;-80
2023/07/22 12:26:29;;;;;;;7.53;2.80;;;23.10;71.40;;;;;;4979414;28;20494;-81
2023/07/22 12:28:55;;;;;;;7.57;2.90;;;23.30;71.70;;;;;;4981499;28;20031;-80
2023/07/22 12:31:23;;;;;;;4.63;2.88;;;23.50;71.70;;;;;;4981756;28;20038;-80
2023/07/22 12:33:49;;;;;;;5.70;2.95;;;23.60;70.60;;;;;;4965110;28;20022;-81
2023/07/22 12:36:14;;;;;;;5.40;2.53;;;23.40;69.60;;;;;;4979033;28;20492;-81